Dowling, South Dakota
Current Conditions -  °F | °C
As of 8:55 AM on Thursday 18 Dec 2014 (Local Time) from KPHP Reporting Station
Overcast Overcast  
Wind Chill: 16°   Ceiling: 900
Heat Index: 25°   Visibility: 10mi
Dew Point: 21°   Wind: 8mph
Humidity: 85%   Direction: 240°WSW
Pressure: 30.08"   Gusts: NA
Location:  43.9288°N, 102.204°W
Report Text: KPHP 181555Z AUTO 24007KT 10SM OVC009 M04/M06 A3008 RMK AO2 SLP213 T10391061
Loading
Personal Weather Stations






























Interactive Weather Map New forecast layout! Learn more

10-Day Weather Forecast

Advertisements
Track Severe Weather on mobile